createdAt,value
2023-04-29T00:00:00.777Z,3.50
2023-04-29T00:02:44.059Z,3.35
2023-04-29T00:05:17.515Z,3.30
2023-04-29T00:07:49.693Z,3.17
2023-04-29T00:10:22.151Z,3.30
2023-04-29T00:12:54.996Z,3.58
2023-04-29T00:15:27.768Z,4.15
2023-04-29T00:18:00.093Z,3.42
2023-04-29T00:20:33.248Z,3.40
2023-04-29T00:23:05.522Z,2.87
2023-04-29T00:25:38.864Z,3.78
2023-04-29T00:28:11.232Z,3.55
2023-04-29T00:30:43.588Z,3.67
2023-04-29T00:33:15.523Z,3.72
2023-04-29T00:35:48.610Z,3.20
2023-04-29T00:38:21.596Z,3.10
2023-04-29T00:40:53.762Z,3.03
2023-04-29T00:43:27.478Z,3.55
2023-04-29T00:45:59.483Z,3.35
2023-04-29T00:48:33.436Z,3.70
2023-04-29T00:51:06.594Z,3.65
2023-04-29T00:53:40.098Z,3.28
2023-04-29T00:56:15.298Z,3.50
2023-04-29T00:58:50.177Z,3.40
2023-04-29T01:01:23.715Z,3.20
2023-04-29T01:03:58.272Z,3.40
2023-04-29T01:06:59.676Z,3.55
2023-04-29T01:09:53.363Z,3.35
2023-04-29T01:13:00.969Z,3.25
2023-04-29T01:15:49.729Z,3.00
2023-04-29T01:18:56.811Z,3.13
2023-04-29T01:21:49.630Z,3.15
2023-04-29T01:24:21.693Z,3.28
2023-04-29T01:30:58.754Z,3.00
2023-04-29T01:34:06.404Z,3.38
2023-04-29T01:37:09.369Z,2.88
2023-04-29T01:40:15.351Z,3.10
2023-04-29T01:43:05.223Z,3.30
2023-04-29T01:45:44.521Z,2.73
2023-04-29T01:51:12.397Z,2.58
2023-04-29T01:53:47.277Z,2.95
2023-04-29T01:56:19.242Z,3.10
2023-04-29T01:59:03.852Z,3.00
2023-04-29T02:01:47.739Z,3.13
2023-04-29T02:04:20.630Z,3.08
2023-04-29T02:06:53.522Z,2.80
2023-04-29T02:09:26.148Z,2.95
2023-04-29T02:12:06.145Z,2.90
2023-04-29T02:14:38.262Z,3.10
2023-04-29T02:17:12.316Z,2.72
2023-04-29T02:19:46.580Z,3.20
2023-04-29T02:22:19.948Z,3.63
2023-04-29T02:24:52.056Z,3.47
2023-04-29T02:27:24.845Z,3.22
2023-04-29T02:29:57.292Z,3.05
2023-04-29T02:32:31.131Z,3.20
2023-04-29T02:35:04.340Z,3.13
2023-04-29T02:37:37.503Z,3.60
2023-04-29T02:40:09.910Z,3.20
2023-04-29T02:42:42.847Z,3.17
2023-04-29T02:45:15.266Z,3.20
2023-04-29T02:47:47.598Z,4.00
2023-04-29T02:50:20.887Z,3.40
2023-04-29T02:52:53.544Z,3.13
2023-04-29T02:55:27.375Z,3.40
2023-04-29T02:58:03.826Z,3.65
2023-04-29T03:00:36.691Z,4.28
2023-04-29T03:03:09.833Z,3.53
2023-04-29T03:05:42.410Z,3.70
2023-04-29T03:08:15.715Z,3.47
2023-04-29T03:10:47.736Z,3.17
2023-04-29T03:13:21.245Z,3.50
2023-04-29T03:15:54.188Z,4.27
2023-04-29T03:18:27.490Z,3.90
2023-04-29T03:20:59.815Z,3.78
2023-04-29T03:23:32.890Z,3.80
2023-04-29T03:26:07.591Z,3.50
2023-04-29T03:28:43.071Z,3.47
2023-04-29T03:31:16.651Z,3.65
2023-04-29T03:33:49.489Z,3.38
2023-04-29T03:36:21.384Z,3.50
2023-04-29T03:39:14.035Z,3.85
2023-04-29T03:41:47.733Z,4.07
2023-04-29T03:44:23.206Z,3.20
2023-04-29T03:46:55.200Z,4.00
2023-04-29T03:49:28.950Z,3.38
2023-04-29T03:52:00.954Z,3.63
2023-04-29T03:54:34.270Z,3.80
2023-04-29T03:57:06.924Z,3.83
2023-04-29T03:59:40.089Z,3.33
2023-04-29T04:02:12.999Z,3.90
2023-04-29T04:04:46.549Z,4.13
2023-04-29T04:07:18.535Z,4.32
2023-04-29T04:10:10.552Z,3.08
2023-04-29T04:12:44.158Z,2.88
2023-04-29T04:15:17.462Z,2.65
2023-04-29T04:17:49.439Z,3.30
2023-04-29T04:20:22.392Z,3.53
2023-04-29T04:22:57.365Z,3.35
2023-04-29T04:25:33.258Z,3.67
2023-04-29T04:28:19.699Z,3.47
2023-04-29T04:31:02.474Z,3.80
2023-04-29T04:33:35.702Z,3.45
2023-04-29T04:36:08.568Z,3.25
2023-04-29T04:38:40.433Z,3.80
2023-04-29T04:41:16.951Z,3.70
2023-04-29T04:43:51.906Z,3.50
2023-04-29T04:46:37.249Z,3.00
2023-04-29T04:49:27.560Z,3.67
2023-04-29T04:51:59.885Z,3.60
2023-04-29T04:54:32.428Z,3.70
2023-04-29T04:57:12.689Z,3.90
2023-04-29T04:59:45.039Z,3.60
2023-04-29T05:02:18.050Z,4.10
2023-04-29T05:04:50.014Z,3.80
2023-04-29T05:07:24.396Z,3.20
2023-04-29T05:10:14.636Z,3.60
2023-04-29T05:12:54.377Z,3.50
2023-04-29T05:15:27.723Z,3.83
2023-04-29T05:18:02.853Z,3.53
2023-04-29T05:20:36.422Z,3.60
2023-04-29T05:23:10.127Z,3.70
2023-04-29T05:25:45.093Z,3.45
2023-04-29T05:28:17.171Z,3.40
2023-04-29T05:30:53.558Z,4.05
2023-04-29T05:33:26.973Z,4.22
2023-04-29T05:35:59.250Z,3.97
2023-04-29T05:38:32.940Z,4.65
2023-04-29T05:41:08.758Z,4.70
2023-04-29T05:43:47.235Z,5.07
2023-04-29T05:46:23.082Z,4.85
2023-04-29T05:48:56.576Z,4.90
2023-04-29T05:51:28.583Z,4.70
2023-04-29T05:54:02.032Z,4.90
2023-04-29T05:56:35.609Z,4.63
2023-04-29T05:59:07.919Z,6.82
2023-04-29T06:01:39.982Z,5.05
2023-04-29T06:04:13.343Z,4.90
2023-04-29T06:07:05.558Z,3.85
2023-04-29T06:09:56.872Z,3.80
2023-04-29T06:12:31.425Z,3.50
2023-04-29T06:15:04.296Z,3.65
2023-04-29T06:17:38.128Z,3.67
2023-04-29T06:20:11.583Z,3.22
2023-04-29T06:22:44.636Z,2.80
2023-04-29T06:25:16.742Z,3.70
2023-04-29T06:27:54.069Z,3.38
2023-04-29T06:30:28.941Z,3.30
2023-04-29T06:33:02.473Z,3.10
2023-04-29T06:35:34.559Z,3.13
2023-04-29T06:38:25.589Z,2.80
2023-04-29T06:41:16.801Z,2.72
2023-04-29T06:44:01.296Z,2.87
2023-04-29T06:46:57.120Z,2.78
2023-04-29T06:49:45.132Z,2.85
2023-04-29T06:52:17.382Z,2.70
2023-04-29T06:54:49.797Z,2.78
2023-04-29T06:57:24.316Z,2.70
2023-04-29T06:59:56.363Z,3.10
2023-04-29T07:02:30.440Z,2.88
2023-04-29T07:05:02.812Z,3.17
2023-04-29T07:07:35.440Z,2.95
2023-04-29T07:10:08.325Z,3.27
2023-04-29T07:12:40.353Z,3.30
2023-04-29T07:15:13.330Z,3.10
2023-04-29T07:17:45.402Z,2.88
2023-04-29T07:20:21.354Z,3.05
2023-04-29T07:22:54.594Z,2.77
2023-04-29T07:25:29.582Z,3.00
2023-04-29T07:28:01.493Z,3.40
2023-04-29T07:30:34.171Z,3.10
2023-04-29T07:33:06.315Z,3.00
2023-04-29T07:35:39.044Z,3.27
2023-04-29T07:38:11.343Z,3.10
2023-04-29T07:40:45.342Z,3.53
2023-04-29T07:43:17.924Z,2.60
2023-04-29T07:45:50.586Z,2.75
2023-04-29T07:48:22.800Z,3.57
2023-04-29T07:50:55.821Z,2.50
2023-04-29T07:53:28.219Z,2.80
2023-04-29T07:56:05.824Z,3.13
2023-04-29T07:58:37.924Z,2.72
2023-04-29T08:01:12.086Z,2.70
2023-04-29T08:03:45.579Z,2.83
2023-04-29T08:06:22.313Z,3.03
2023-04-29T08:08:56.237Z,3.03
2023-04-29T08:11:28.523Z,3.00
2023-04-29T08:14:00.630Z,3.10
2023-04-29T08:16:33.284Z,3.20
2023-04-29T08:19:05.234Z,2.95
2023-04-29T08:21:37.943Z,2.53
2023-04-29T08:24:09.837Z,2.83
2023-04-29T08:26:42.751Z,2.27
2023-04-29T08:29:16.200Z,2.58
2023-04-29T08:31:48.922Z,2.53
2023-04-29T08:34:21.318Z,2.90
2023-04-29T08:36:53.831Z,3.22
2023-04-29T08:39:26.121Z,2.70
2023-04-29T08:41:59.375Z,2.70
2023-04-29T08:44:32.642Z,2.63
2023-04-29T08:47:06.617Z,2.45
2023-04-29T08:49:38.517Z,2.65
2023-04-29T08:52:11.945Z,2.80
2023-04-29T08:54:44.279Z,2.90
2023-04-29T08:57:17.003Z,2.78
2023-04-29T08:59:49.341Z,3.00
2023-04-29T09:02:23.192Z,2.83
2023-04-29T09:05:01.219Z,3.03
2023-04-29T09:07:34.347Z,2.53
2023-04-29T09:10:08.266Z,2.70
2023-04-29T09:12:40.588Z,2.53
2023-04-29T09:15:13.174Z,3.17
2023-04-29T09:17:48.187Z,3.33
2023-04-29T09:20:21.399Z,3.20
2023-04-29T09:22:59.979Z,3.00
2023-04-29T09:25:32.879Z,3.13
2023-04-29T09:28:17.450Z,3.38
2023-04-29T09:30:51.005Z,3.17
2023-04-29T09:33:22.967Z,3.72
2023-04-29T09:35:55.584Z,4.28
2023-04-29T09:38:28.148Z,4.00
2023-04-29T09:41:10.179Z,6.07
2023-04-29T09:43:42.613Z,4.87
2023-04-29T09:46:15.829Z,3.60
2023-04-29T09:48:47.833Z,3.60
2023-04-29T09:51:20.812Z,3.63
2023-04-29T09:53:52.738Z,3.40
2023-04-29T09:56:29.354Z,3.53
2023-04-29T09:59:09.381Z,3.42
2023-04-29T10:01:42.502Z,3.60
2023-04-29T10:04:17.429Z,3.75
2023-04-29T10:06:52.938Z,3.72
2023-04-29T10:09:24.847Z,4.17
2023-04-29T10:11:57.523Z,5.45
2023-04-29T10:14:35.334Z,3.42
2023-04-29T10:17:17.749Z,3.40
2023-04-29T10:20:06.154Z,3.42
2023-04-29T10:22:54.825Z,3.93
2023-04-29T10:25:28.626Z,3.60
2023-04-29T10:28:01.614Z,3.20
2023-04-29T10:30:36.160Z,3.17
2023-04-29T10:33:09.684Z,3.92
2023-04-29T10:35:45.401Z,3.57
2023-04-29T10:38:40.241Z,4.00
2023-04-29T10:41:24.998Z,2.90
2023-04-29T10:44:00.648Z,3.13
2023-04-29T10:46:34.777Z,3.75
2023-04-29T10:49:07.555Z,3.60
2023-04-29T10:51:43.303Z,3.50
2023-04-29T10:54:26.183Z,3.50
2023-04-29T10:56:58.093Z,3.88
2023-04-29T10:59:33.637Z,2.92
2023-04-29T11:02:06.061Z,3.63
2023-04-29T11:05:11.436Z,3.58
2023-04-29T11:07:46.109Z,3.35
2023-04-29T11:10:18.801Z,3.30
2023-04-29T11:13:28.139Z,3.40
2023-04-29T11:16:11.856Z,3.40
2023-04-29T11:19:08.992Z,8.18
2023-04-29T11:21:41.267Z,3.72
2023-04-29T11:24:16.452Z,3.47
2023-04-29T11:26:49.063Z,3.03
2023-04-29T11:29:23.085Z,7.47
2023-04-29T11:32:04.734Z,3.40
2023-04-29T11:34:37.823Z,3.42
2023-04-29T11:37:10.367Z,4.00
2023-04-29T11:39:43.309Z,4.15
2023-04-29T11:42:21.403Z,3.70
2023-04-29T11:44:57.362Z,3.38
2023-04-29T11:47:31.056Z,3.67
2023-04-29T11:50:09.120Z,3.67
2023-04-29T11:52:41.614Z,3.60
2023-04-29T11:55:15.055Z,4.63
2023-04-29T11:57:51.050Z,3.97
2023-04-29T12:00:25.204Z,3.95
2023-04-29T12:02:58.821Z,3.97
2023-04-29T12:05:32.096Z,3.58
2023-04-29T12:08:04.268Z,3.03
2023-04-29T12:10:36.905Z,3.92
2023-04-29T12:13:10.348Z,3.63
2023-04-29T12:15:43.949Z,3.80
2023-04-29T12:18:18.565Z,3.30
2023-04-29T12:20:56.302Z,3.87
2023-04-29T12:23:28.391Z,3.33
2023-04-29T12:26:01.820Z,3.22
2023-04-29T12:28:34.710Z,3.20
2023-04-29T12:31:09.438Z,3.72
2023-04-29T12:33:46.856Z,3.43
2023-04-29T12:36:19.417Z,3.17
2023-04-29T12:38:55.003Z,3.28
2023-04-29T12:41:42.752Z,3.00
2023-04-29T12:44:16.677Z,3.20
2023-04-29T12:46:48.640Z,3.53
2023-04-29T12:49:21.641Z,2.67
2023-04-29T12:51:53.669Z,2.90
2023-04-29T12:54:26.716Z,3.40
2023-04-29T12:56:59.040Z,3.00
2023-04-29T12:59:31.589Z,3.37
2023-04-29T13:02:03.594Z,3.50
2023-04-29T13:04:36.234Z,3.67
2023-04-29T13:07:08.285Z,2.78
2023-04-29T13:09:42.047Z,3.65
2023-04-29T13:12:14.305Z,3.17
2023-04-29T13:14:47.234Z,3.40
2023-04-29T13:17:19.524Z,3.25
2023-04-29T13:19:52.506Z,3.38
2023-04-29T13:22:24.504Z,2.92
2023-04-29T13:24:57.342Z,3.30
2023-04-29T13:27:29.297Z,3.47
2023-04-29T13:30:02.423Z,3.00
2023-04-29T13:32:43.625Z,3.40
2023-04-29T13:35:21.854Z,3.60
2023-04-29T13:37:53.727Z,3.30
2023-04-29T13:40:28.064Z,3.63
2023-04-29T13:43:05.957Z,3.40
2023-04-29T13:45:45.334Z,3.70
2023-04-29T13:48:45.310Z,3.50
2023-04-29T13:56:53.341Z,3.08
2023-04-29T14:02:23.450Z,4.07
2023-04-29T14:04:46.400Z,4.00
2023-04-29T14:07:18.396Z,3.90
2023-04-29T14:09:52.172Z,3.70
2023-04-29T14:12:24.480Z,3.40
2023-04-29T14:15:00.174Z,3.97
2023-04-29T14:17:33.000Z,3.90
2023-04-29T14:20:06.580Z,4.13
2023-04-29T14:22:38.841Z,3.60
2023-04-29T14:25:12.705Z,3.50
2023-04-29T14:27:44.615Z,3.85
2023-04-29T14:30:17.660Z,4.20
2023-04-29T14:32:49.677Z,3.88
2023-04-29T14:35:22.641Z,3.90
2023-04-29T14:37:54.513Z,3.72
2023-04-29T14:40:27.115Z,3.65
2023-04-29T14:42:59.411Z,3.70
2023-04-29T14:45:34.640Z,3.80
2023-04-29T14:48:08.306Z,3.65
2023-04-29T14:50:41.038Z,3.33
2023-04-29T14:53:13.021Z,3.60
2023-04-29T14:55:46.303Z,3.77
2023-04-29T14:58:18.643Z,4.18
2023-04-29T15:00:51.908Z,3.50
2023-04-29T15:03:24.108Z,3.72
2023-04-29T15:05:59.178Z,3.92
2023-04-29T15:08:32.091Z,3.80
2023-04-29T15:11:04.786Z,3.90
2023-04-29T15:13:37.562Z,4.32
2023-04-29T15:16:10.326Z,4.28
2023-04-29T15:21:36.079Z,3.83
2023-04-29T15:24:09.765Z,4.25
2023-04-29T15:26:42.092Z,4.07
2023-04-29T15:29:15.136Z,4.30
2023-04-29T15:31:47.852Z,4.40
2023-04-29T15:34:19.731Z,4.53
2023-04-29T15:36:52.807Z,5.18
2023-04-29T15:39:25.071Z,4.25
2023-04-29T15:41:59.244Z,5.05
2023-04-29T15:44:33.079Z,4.72
2023-04-29T15:47:05.046Z,4.97
2023-04-29T15:49:38.739Z,5.13
2023-04-29T15:52:11.006Z,4.20
2023-04-29T15:54:44.107Z,4.53
2023-04-29T15:57:41.664Z,5.40
2023-04-29T16:00:13.899Z,5.73
2023-04-29T16:02:47.230Z,5.90
2023-04-29T16:05:19.158Z,5.85
2023-04-29T16:07:52.359Z,5.03
2023-04-29T16:10:24.389Z,4.88
2023-04-29T16:12:57.229Z,6.23
2023-04-29T16:15:30.415Z,5.22
2023-04-29T16:18:02.385Z,5.47
2023-04-29T16:20:35.369Z,5.07
2023-04-29T16:23:08.115Z,5.53
2023-04-29T16:26:02.164Z,4.97
2023-04-29T16:28:34.567Z,4.47
2023-04-29T16:31:08.138Z,4.90
2023-04-29T16:33:41.084Z,5.13
2023-04-29T16:36:14.349Z,4.50
2023-04-29T16:38:47.019Z,4.67
2023-04-29T16:41:18.862Z,4.60
2023-04-29T16:43:51.586Z,5.07
2023-04-29T16:46:24.675Z,5.32
2023-04-29T16:48:57.124Z,5.50
2023-04-29T16:51:30.426Z,6.03
2023-04-29T16:54:02.629Z,5.05
2023-04-29T16:56:35.358Z,5.63
2023-04-29T16:59:08.452Z,5.78
2023-04-29T17:04:35.973Z,5.33
2023-04-29T17:07:09.770Z,5.20
2023-04-29T17:09:41.719Z,5.43
2023-04-29T17:12:14.641Z,5.22
2023-04-29T17:14:48.327Z,5.22
2023-04-29T17:17:21.775Z,5.53
2023-04-29T17:19:55.393Z,5.93
2023-04-29T17:22:28.978Z,5.57
2023-04-29T17:25:01.665Z,5.80
2023-04-29T17:27:34.710Z,5.20
2023-04-29T17:30:08.100Z,6.00
2023-04-29T17:32:41.784Z,6.20
2023-04-29T17:35:13.721Z,6.45
2023-04-29T17:37:47.995Z,5.85
2023-04-29T17:40:20.023Z,5.60
2023-04-29T17:42:52.924Z,6.90
2023-04-29T17:45:25.797Z,6.35
2023-04-29T17:47:58.646Z,6.30
2023-04-29T17:50:30.880Z,6.15
2023-04-29T17:53:03.637Z,6.78
2023-04-29T17:55:40.002Z,6.33
2023-04-29T17:58:12.147Z,6.78
2023-04-29T18:00:46.567Z,6.43
2023-04-29T18:03:18.960Z,6.80
2023-04-29T18:05:51.992Z,6.72
2023-04-29T18:08:24.814Z,7.05
2023-04-29T18:10:57.113Z,6.90
2023-04-29T18:13:29.534Z,7.00
2023-04-29T18:16:02.294Z,6.70
2023-04-29T18:18:35.737Z,6.68
2023-04-29T18:21:09.506Z,6.67
2023-04-29T18:23:41.874Z,7.15
2023-04-29T18:26:15.770Z,6.57
2023-04-29T18:28:48.519Z,7.10
2023-04-29T18:31:23.521Z,5.97
2023-04-29T18:33:55.843Z,6.63
2023-04-29T18:36:29.091Z,6.30
2023-04-29T18:39:02.235Z,7.03
2023-04-29T18:41:34.154Z,6.60
2023-04-29T18:44:06.870Z,6.35
2023-04-29T18:46:39.376Z,6.80
2023-04-29T18:49:16.415Z,6.68
2023-04-29T18:51:49.678Z,7.07
2023-04-29T18:54:22.913Z,7.32
2023-04-29T18:56:55.926Z,7.13
2023-04-29T18:59:30.030Z,7.13
2023-04-29T19:02:02.129Z,7.07
2023-04-29T19:04:36.197Z,7.28
2023-04-29T19:07:08.125Z,7.18
2023-04-29T19:09:40.978Z,7.57
2023-04-29T19:12:12.837Z,7.40
2023-04-29T19:14:45.703Z,7.53
2023-04-29T19:17:18.327Z,7.50
2023-04-29T19:19:50.302Z,7.20
2023-04-29T19:22:23.088Z,7.13
2023-04-29T19:24:55.860Z,7.30
2023-04-29T19:27:28.997Z,7.60
2023-04-29T19:30:00.907Z,7.40
2023-04-29T19:32:34.152Z,7.20
2023-04-29T19:35:07.779Z,7.53
2023-04-29T19:37:40.491Z,7.87
2023-04-29T19:40:13.420Z,7.65
2023-04-29T19:42:45.746Z,8.18
2023-04-29T19:45:18.060Z,8.00
2023-04-29T19:47:51.255Z,8.00
2023-04-29T19:50:23.703Z,8.53
2023-04-29T19:52:56.531Z,8.43
2023-04-29T19:55:29.283Z,8.68
2023-04-29T19:58:02.026Z,8.60
2023-04-29T20:00:36.704Z,9.00
2023-04-29T20:03:09.089Z,8.60
2023-04-29T20:05:41.803Z,8.35
2023-04-29T20:08:14.239Z,8.48
2023-04-29T20:10:46.316Z,8.10
2023-04-29T20:13:19.448Z,7.65
2023-04-29T20:15:51.846Z,8.13
2023-04-29T20:18:24.141Z,9.10
2023-04-29T20:20:57.338Z,8.65
2023-04-29T20:26:22.699Z,7.95
2023-04-29T20:28:55.967Z,7.50
2023-04-29T20:31:28.917Z,8.68
2023-04-29T20:34:20.053Z,7.60
2023-04-29T20:36:52.385Z,8.43
2023-04-29T20:39:28.048Z,8.10
2023-04-29T20:44:56.631Z,9.07
2023-04-29T20:47:30.363Z,8.35
2023-04-29T20:50:05.263Z,8.07
2023-04-29T20:52:37.218Z,8.40
2023-04-29T20:55:10.774Z,9.17
2023-04-29T20:57:43.097Z,8.70
2023-04-29T21:00:15.242Z,8.02
2023-04-29T21:02:47.992Z,10.25
2023-04-29T21:05:20.034Z,10.95
2023-04-29T21:07:53.516Z,9.53
2023-04-29T21:10:25.797Z,9.43
2023-04-29T21:12:58.733Z,9.63
2023-04-29T21:15:31.471Z,10.45
2023-04-29T21:18:04.931Z,9.30
2023-04-29T21:20:37.265Z,8.80
2023-04-29T21:23:09.591Z,9.38
2023-04-29T21:25:41.436Z,10.15
2023-04-29T21:28:16.773Z,9.15
2023-04-29T21:30:48.953Z,9.80
2023-04-29T21:33:21.886Z,9.17
2023-04-29T21:35:53.855Z,8.95
2023-04-29T21:38:26.971Z,9.10
2023-04-29T21:41:00.635Z,8.75
2023-04-29T21:43:33.935Z,8.93
2023-04-29T21:46:07.136Z,10.05
2023-04-29T21:48:40.476Z,9.02
2023-04-29T21:51:12.530Z,8.05
2023-04-29T21:53:46.196Z,9.60
2023-04-29T21:56:18.255Z,9.48
2023-04-29T21:58:51.228Z,9.45
2023-04-29T22:01:41.804Z,9.02
2023-04-29T22:04:16.738Z,8.57
2023-04-29T22:06:48.647Z,7.97
2023-04-29T22:09:21.919Z,9.68
2023-04-29T22:11:54.254Z,9.40
2023-04-29T22:14:27.030Z,8.48
2023-04-29T22:16:59.028Z,8.85
2023-04-29T22:19:31.695Z,9.15
2023-04-29T22:22:04.201Z,8.50
2023-04-29T22:24:36.897Z,8.95
2023-04-29T22:27:08.888Z,9.23
2023-04-29T22:29:41.543Z,8.95
2023-04-29T22:32:14.349Z,9.02
2023-04-29T22:34:46.702Z,8.38
2023-04-29T22:37:18.979Z,8.95
2023-04-29T22:39:52.416Z,8.63
2023-04-29T22:42:24.583Z,8.80
2023-04-29T22:47:48.989Z,9.13
2023-04-29T22:50:22.866Z,8.65
2023-04-29T22:52:55.148Z,9.55
2023-04-29T22:55:28.239Z,8.30
2023-04-29T22:58:00.517Z,7.90
2023-04-29T23:00:33.327Z,8.77
2023-04-29T23:03:05.698Z,8.63
2023-04-29T23:05:38.036Z,8.98
2023-04-29T23:08:11.100Z,8.73
2023-04-29T23:10:50.783Z,8.35
2023-04-29T23:13:23.971Z,8.98
2023-04-29T23:15:57.713Z,8.90
2023-04-29T23:18:30.853Z,8.73
2023-04-29T23:21:03.512Z,9.68
2023-04-29T23:23:36.641Z,8.40
2023-04-29T23:26:09.071Z,8.65
2023-04-29T23:28:41.744Z,7.78
2023-04-29T23:31:13.697Z,8.38
2023-04-29T23:33:46.851Z,9.02
2023-04-29T23:36:18.762Z,8.70
2023-04-29T23:38:51.836Z,8.35
2023-04-29T23:41:23.679Z,9.23
2023-04-29T23:44:01.317Z,9.32
2023-04-29T23:46:34.609Z,8.73
2023-04-29T23:49:07.008Z,8.95
2023-04-29T23:51:39.684Z,8.95
2023-04-29T23:54:12.001Z,8.35
2023-04-29T23:56:43.844Z,9.00
2023-04-29T23:59:16.539Z,9.25
